createdAt,value
2016-11-24T00:00:03.380Z,99.99
2016-11-24T00:01:16.362Z,99.99
2016-11-24T00:02:28.930Z,99.99
2016-11-24T00:04:12.521Z,99.99
2016-11-24T00:05:25.037Z,99.99
2016-11-24T00:08:53.278Z,99.99
2016-11-24T00:10:05.720Z,99.99
2016-11-24T00:11:19.298Z,99.99
2016-11-24T00:12:31.772Z,99.99
2016-11-24T00:13:44.241Z,99.99
2016-11-24T00:14:56.755Z,99.99
2016-11-24T00:16:09.758Z,99.99
2016-11-24T00:17:22.323Z,99.99
2016-11-24T00:19:07.046Z,99.99
2016-11-24T00:20:19.476Z,99.99
2016-11-24T00:21:31.988Z,99.99
2016-11-24T00:22:45.534Z,99.99
2016-11-24T00:25:41.109Z,99.99
2016-11-24T00:26:53.589Z,99.99
2016-11-24T00:28:06.149Z,99.99
2016-11-24T00:29:18.083Z,99.99
2016-11-24T00:30:30.073Z,99.99
2016-11-24T00:31:43.679Z,99.99
2016-11-24T00:32:57.218Z,99.99
2016-11-24T00:34:14.203Z,99.99
2016-11-24T00:35:27.775Z,99.99
2016-11-24T00:36:40.254Z,99.99
2016-11-24T00:37:51.709Z,99.99
2016-11-24T00:39:05.268Z,99.99
2016-11-24T00:40:18.857Z,99.99
2016-11-24T00:41:31.929Z,99.99
2016-11-24T00:42:44.976Z,99.99
2016-11-24T00:43:57.495Z,99.99
2016-11-24T00:45:10.010Z,99.99
2016-11-24T00:46:22.993Z,99.99
2016-11-24T00:47:36.062Z,99.99
2016-11-24T00:48:49.122Z,99.99
2016-11-24T00:50:01.669Z,99.99
2016-11-24T00:51:14.147Z,99.99
2016-11-24T00:52:26.600Z,99.99
2016-11-24T00:53:39.613Z,99.99
2016-11-24T00:54:53.133Z,99.99
2016-11-24T00:56:18.979Z,99.99
2016-11-24T00:57:31.996Z,99.99
2016-11-24T00:58:45.070Z,99.99
2016-11-24T00:59:58.085Z,99.99
2016-11-24T01:01:10.553Z,99.99
2016-11-24T01:02:23.547Z,99.99
2016-11-24T01:03:35.991Z,99.99
2016-11-24T01:04:49.494Z,99.99
2016-11-24T01:06:02.523Z,99.99
2016-11-24T01:07:14.487Z,99.99
2016-11-24T01:08:28.019Z,99.99
2016-11-24T01:10:12.145Z,99.99
2016-11-24T01:11:25.188Z,99.99
2016-11-24T01:13:08.307Z,99.99
2016-11-24T01:14:51.875Z,99.99
2016-11-24T01:16:04.386Z,99.99
2016-11-24T01:17:48.984Z,99.99
2016-11-24T01:19:00.940Z,99.99
2016-11-24T01:20:14.448Z,99.99
2016-11-24T01:21:27.472Z,99.99
2016-11-24T01:22:40.542Z,99.99
2016-11-24T01:23:54.133Z,99.99
2016-11-24T01:25:07.193Z,99.99
2016-11-24T01:26:20.725Z,99.99
2016-11-24T01:27:34.298Z,99.99
2016-11-24T01:28:47.345Z,99.99
2016-11-24T01:30:00.320Z,99.99
2016-11-24T01:31:12.282Z,99.99
2016-11-24T01:32:25.356Z,99.99
2016-11-24T01:33:38.305Z,99.99
2016-11-24T01:34:51.842Z,99.99
2016-11-24T01:36:04.352Z,99.99
2016-11-24T01:37:48.520Z,99.99
2016-11-24T01:39:01.567Z,99.99
2016-11-24T01:40:15.061Z,99.99
2016-11-24T01:41:28.081Z,99.99
2016-11-24T01:42:41.066Z,99.99
2016-11-24T01:43:54.045Z,99.99
2016-11-24T01:45:06.485Z,99.99
2016-11-24T01:46:20.086Z,99.99
2016-11-24T01:48:04.834Z,99.99
2016-11-24T01:49:18.429Z,99.99
2016-11-24T01:50:31.404Z,99.99
2016-11-24T01:51:44.434Z,99.99
2016-11-24T01:52:57.403Z,99.99
2016-11-24T01:54:09.857Z,99.99
2016-11-24T01:55:22.854Z,99.99
2016-11-24T01:56:36.417Z,99.99
2016-11-24T01:57:49.386Z,99.99
2016-11-24T01:59:02.440Z,99.99
2016-11-24T02:00:14.378Z,99.99
2016-11-24T02:01:26.899Z,99.99
2016-11-24T02:02:39.350Z,99.99
2016-11-24T02:03:52.353Z,99.99
2016-11-24T02:05:04.835Z,99.99
2016-11-24T02:06:16.776Z,99.99
2016-11-24T02:08:00.906Z,99.99
2016-11-24T02:09:13.959Z,99.99
2016-11-24T02:12:11.100Z,99.99
2016-11-24T02:13:24.172Z,99.99
2016-11-24T02:14:36.692Z,99.99
2016-11-24T02:15:49.638Z,99.99
2016-11-24T02:17:02.099Z,99.99
2016-11-24T02:18:14.539Z,99.99
2016-11-24T02:19:27.535Z,99.99
2016-11-24T02:20:40.557Z,99.99
2016-11-24T02:21:53.093Z,99.99
2016-11-24T02:23:06.097Z,99.99
2016-11-24T02:24:18.605Z,99.99
2016-11-24T02:25:31.077Z,99.99
2016-11-24T02:26:44.077Z,99.99
2016-11-24T02:27:57.181Z,99.99
2016-11-24T02:29:09.597Z,99.99
2016-11-24T02:30:22.088Z,99.99
2016-11-24T02:31:34.618Z,99.99
2016-11-24T02:32:46.603Z,99.99
2016-11-24T02:33:59.604Z,99.99
2016-11-24T02:35:12.584Z,99.99
2016-11-24T02:36:25.058Z,99.99
2016-11-24T02:37:38.543Z,99.99
2016-11-24T02:38:51.028Z,99.99
2016-11-24T02:40:02.962Z,99.99
2016-11-24T02:41:16.006Z,99.99
2016-11-24T02:42:29.072Z,99.99
2016-11-24T02:43:42.069Z,99.99
2016-11-24T02:44:55.656Z,99.99
2016-11-24T02:46:08.196Z,99.99
2016-11-24T02:47:21.194Z,99.99
2016-11-24T02:48:33.151Z,99.99
2016-11-24T02:49:45.661Z,99.99
2016-11-24T02:50:58.123Z,99.99
2016-11-24T02:52:09.044Z,99.99
2016-11-24T02:53:53.187Z,99.99
2016-11-24T02:55:05.119Z,99.99
2016-11-24T02:56:48.757Z,99.99
2016-11-24T02:58:02.254Z,99.99
2016-11-24T02:59:14.690Z,99.99
2016-11-24T03:00:27.153Z,99.99
2016-11-24T03:01:40.247Z,99.99
2016-11-24T03:03:24.395Z,99.99
2016-11-24T03:04:37.403Z,99.99
2016-11-24T03:05:49.907Z,99.99
2016-11-24T03:07:03.037Z,99.99
2016-11-24T03:09:41.971Z,99.99
2016-11-24T03:10:54.089Z,99.99
2016-11-24T03:12:07.092Z,99.99
2016-11-24T03:13:20.687Z,99.99
2016-11-24T03:14:33.721Z,99.99
2016-11-24T03:15:45.171Z,99.99
2016-11-24T03:16:58.719Z,99.99
2016-11-24T03:18:11.427Z,99.99
2016-11-24T03:19:23.871Z,99.99
2016-11-24T03:20:35.256Z,99.99
2016-11-24T03:21:47.167Z,99.99
2016-11-24T03:22:59.128Z,99.99
2016-11-24T03:24:42.743Z,99.99
2016-11-24T03:25:54.752Z,99.99
2016-11-24T03:27:07.793Z,99.99
2016-11-24T03:28:20.240Z,99.99
2016-11-24T03:29:32.749Z,99.99
2016-11-24T03:30:45.770Z,99.99
2016-11-24T03:31:58.760Z,99.99
2016-11-24T03:33:11.196Z,99.99
2016-11-24T03:34:23.693Z,99.99
2016-11-24T03:35:36.752Z,99.99
2016-11-24T03:36:50.347Z,99.99
2016-11-24T03:38:02.849Z,99.99
2016-11-24T03:39:15.894Z,99.99
2016-11-24T03:40:28.951Z,99.99
2016-11-24T03:41:40.900Z,99.99
2016-11-24T03:42:54.446Z,99.99
2016-11-24T03:44:06.418Z,99.99
2016-11-24T03:45:49.993Z,99.99
2016-11-24T03:47:02.450Z,99.99
2016-11-24T03:48:14.410Z,99.99
2016-11-24T03:49:27.369Z,99.99
2016-11-24T03:52:23.396Z,99.99
2016-11-24T03:53:36.414Z,99.99
2016-11-24T03:54:48.377Z,99.99
2016-11-24T03:56:01.393Z,99.99
2016-11-24T03:57:13.398Z,99.99
2016-11-24T03:58:26.361Z,99.99
2016-11-24T03:59:38.306Z,99.99
2016-11-24T04:00:50.750Z,99.99
2016-11-24T04:02:02.709Z,99.99
2016-11-24T04:03:15.710Z,99.99
2016-11-24T04:04:58.834Z,99.99
2016-11-24T04:06:10.879Z,99.99
2016-11-24T04:07:23.420Z,99.99
2016-11-24T04:08:36.452Z,99.99
2016-11-24T04:09:48.945Z,99.99
2016-11-24T04:11:01.987Z,99.99
2016-11-24T04:12:15.032Z,99.99
2016-11-24T04:13:27.461Z,99.99
2016-11-24T04:14:39.953Z,99.99
2016-11-24T04:15:52.421Z,99.99
2016-11-24T04:17:05.913Z,99.99
2016-11-24T04:18:17.907Z,99.99
2016-11-24T04:19:31.445Z,99.99
2016-11-24T04:20:44.975Z,99.99
2016-11-24T04:21:58.024Z,99.99
2016-11-24T04:23:11.065Z,99.99
2016-11-24T04:24:55.771Z,99.99
2016-11-24T04:26:08.789Z,99.99
2016-11-24T04:27:21.764Z,99.99
2016-11-24T04:28:34.783Z,99.99
2016-11-24T04:29:46.710Z,99.99
2016-11-24T04:30:59.175Z,99.99
2016-11-24T04:32:11.160Z,99.99
2016-11-24T04:33:23.068Z,99.99
2016-11-24T04:34:35.552Z,99.99
2016-11-24T04:35:48.013Z,99.99
2016-11-24T04:37:01.000Z,99.99
2016-11-24T04:38:13.470Z,99.99
2016-11-24T04:39:27.070Z,99.99
2016-11-24T04:40:39.584Z,99.99
2016-11-24T04:41:52.555Z,99.99
2016-11-24T04:43:04.487Z,99.99
2016-11-24T04:44:17.554Z,99.99
2016-11-24T04:45:30.583Z,99.99
2016-11-24T04:46:43.620Z,99.99
2016-11-24T04:48:28.241Z,99.99
2016-11-24T04:49:40.681Z,99.99
2016-11-24T04:50:54.228Z,99.99
2016-11-24T04:52:07.771Z,99.99
2016-11-24T04:53:20.275Z,99.99
2016-11-24T04:54:33.239Z,99.99
2016-11-24T04:55:46.233Z,99.99
2016-11-24T04:56:58.101Z,99.99
2016-11-24T04:58:11.595Z,99.99
2016-11-24T04:59:23.031Z,99.99
2016-11-24T05:00:35.482Z,99.99
2016-11-24T05:01:49.028Z,99.99
2016-11-24T05:03:01.009Z,99.99
2016-11-24T05:04:14.531Z,99.99
2016-11-24T05:05:28.073Z,99.99
2016-11-24T05:06:40.037Z,99.99
2016-11-24T05:07:53.505Z,99.99
2016-11-24T05:09:06.009Z,99.99
2016-11-24T05:10:18.433Z,99.99
2016-11-24T05:11:31.914Z,99.99
2016-11-24T05:13:16.032Z,99.99
2016-11-24T05:14:29.088Z,99.99
2016-11-24T05:15:42.141Z,99.99
2016-11-24T05:16:54.121Z,99.99
2016-11-24T05:18:06.549Z,99.99
2016-11-24T05:19:19.572Z,99.99
2016-11-24T05:20:33.123Z,99.99
2016-11-24T05:21:45.622Z,99.99
2016-11-24T05:22:58.649Z,99.99
2016-11-24T05:24:11.647Z,99.99
2016-11-24T05:25:25.245Z,99.99
2016-11-24T05:26:38.290Z,99.99
2016-11-24T05:27:51.293Z,99.99
2016-11-24T05:29:04.267Z,99.99
2016-11-24T05:30:17.217Z,99.99
2016-11-24T05:31:30.272Z,99.99
2016-11-24T05:32:43.299Z,99.99
2016-11-24T05:33:56.289Z,99.99
2016-11-24T05:35:08.801Z,99.99
2016-11-24T05:36:21.825Z,99.99
2016-11-24T05:37:33.808Z,99.99
2016-11-24T05:38:46.282Z,99.99
2016-11-24T05:39:59.860Z,99.99
2016-11-24T05:41:43.479Z,99.99
2016-11-24T05:42:55.422Z,99.99
2016-11-24T05:44:07.925Z,99.99
2016-11-24T05:45:20.958Z,99.99
2016-11-24T05:46:33.428Z,99.99
2016-11-24T05:47:45.396Z,99.99
2016-11-24T05:48:58.977Z,99.99
2016-11-24T05:50:11.496Z,99.99
2016-11-24T05:51:24.461Z,99.99
2016-11-24T05:52:36.383Z,99.99
2016-11-24T05:53:48.854Z,99.99
2016-11-24T05:55:01.354Z,99.99
2016-11-24T05:56:13.875Z,99.99
2016-11-24T05:57:26.876Z,99.99
2016-11-24T05:58:39.879Z,99.99
2016-11-24T05:59:52.890Z,99.99
2016-11-24T06:01:06.356Z,99.99
2016-11-24T06:02:19.871Z,99.99
2016-11-24T06:03:32.420Z,99.99
2016-11-24T06:04:45.472Z,99.99
2016-11-24T06:05:58.561Z,99.99
2016-11-24T06:07:11.561Z,99.99
2016-11-24T06:08:25.082Z,99.99
2016-11-24T06:09:38.690Z,99.99
2016-11-24T06:10:50.652Z,99.99
2016-11-24T06:12:03.596Z,99.99
2016-11-24T06:13:16.055Z,99.99
2016-11-24T06:14:29.101Z,99.99
2016-11-24T06:15:42.694Z,99.99
2016-11-24T06:16:56.225Z,99.99
2016-11-24T06:18:08.717Z,99.99
2016-11-24T06:19:21.697Z,99.99
2016-11-24T06:20:34.674Z,99.99
2016-11-24T06:21:47.727Z,99.99
2016-11-24T06:23:01.316Z,99.99
2016-11-24T06:24:13.351Z,99.99
2016-11-24T06:25:25.320Z,99.99
2016-11-24T06:26:38.350Z,99.99
2016-11-24T06:27:50.341Z,99.99
2016-11-24T06:29:02.333Z,99.99
2016-11-24T06:30:15.937Z,99.99
2016-11-24T06:31:28.940Z,99.99
2016-11-24T06:32:41.479Z,99.99
2016-11-24T06:33:54.533Z,99.99
2016-11-24T06:35:07.074Z,99.99
2016-11-24T06:36:19.584Z,99.99
2016-11-24T06:37:32.085Z,99.99
2016-11-24T06:38:45.699Z,99.99
2016-11-24T06:39:58.743Z,99.99
2016-11-24T06:41:42.927Z,99.99
2016-11-24T06:42:55.899Z,99.99
2016-11-24T06:44:08.414Z,99.99
2016-11-24T06:45:21.410Z,99.99
2016-11-24T06:47:05.643Z,99.99
2016-11-24T06:48:17.136Z,99.99
2016-11-24T06:49:29.183Z,99.99
2016-11-24T06:50:41.701Z,99.99
2016-11-24T06:51:54.178Z,99.99
2016-11-24T06:53:07.201Z,99.99
2016-11-24T06:54:19.707Z,99.99
2016-11-24T06:55:32.203Z,99.99
2016-11-24T06:56:44.781Z,99.99
2016-11-24T06:57:57.290Z,99.99
2016-11-24T06:59:09.794Z,99.99
2016-11-24T07:00:20.746Z,99.99
2016-11-24T07:01:33.222Z,99.99
2016-11-24T07:02:45.224Z,99.99
2016-11-24T07:03:58.268Z,99.99
2016-11-24T07:05:10.805Z,99.99
2016-11-24T07:06:22.784Z,99.99
2016-11-24T07:07:35.881Z,99.99
2016-11-24T07:08:47.884Z,99.99
2016-11-24T07:10:00.962Z,99.99
2016-11-24T07:11:20.249Z,99.99
2016-11-24T07:12:32.213Z,99.99
2016-11-24T07:13:45.239Z,99.99
2016-11-24T07:14:58.297Z,99.99
2016-11-24T07:16:10.857Z,99.99
2016-11-24T07:17:23.431Z,99.99
2016-11-24T07:18:35.898Z,99.99
2016-11-24T07:19:47.899Z,99.99
2016-11-24T07:21:00.912Z,99.99
2016-11-24T07:22:13.388Z,99.99
2016-11-24T07:23:25.905Z,99.99
2016-11-24T07:24:38.953Z,99.99
2016-11-24T07:25:51.462Z,99.99
2016-11-24T07:27:02.971Z,99.99
2016-11-24T07:28:15.495Z,99.99
2016-11-24T07:29:27.422Z,99.99
2016-11-24T07:30:39.939Z,99.99
2016-11-24T07:31:51.901Z,99.99
2016-11-24T07:34:46.458Z,99.99
2016-11-24T07:35:59.463Z,99.99
2016-11-24T07:37:12.570Z,99.99
2016-11-24T07:38:25.117Z,99.99
2016-11-24T07:39:37.659Z,99.99
2016-11-24T07:40:50.742Z,99.99
2016-11-24T07:42:03.224Z,99.99
2016-11-24T07:43:15.717Z,99.99
2016-11-24T07:44:27.267Z,99.99
2016-11-24T07:45:39.785Z,99.99
2016-11-24T07:46:51.203Z,99.99
2016-11-24T07:48:03.166Z,99.99
2016-11-24T07:49:15.725Z,99.99
2016-11-24T07:50:28.743Z,99.99
2016-11-24T07:51:41.239Z,99.99
2016-11-24T07:52:54.817Z,99.99
2016-11-24T07:54:07.853Z,99.99
2016-11-24T07:55:20.352Z,99.99
2016-11-24T07:56:31.835Z,99.99
2016-11-24T07:57:44.364Z,99.99
2016-11-24T07:58:56.906Z,99.99
2016-11-24T08:00:09.487Z,99.99
2016-11-24T08:01:21.977Z,99.99
2016-11-24T08:02:33.927Z,99.99
2016-11-24T08:03:45.392Z,99.99
2016-11-24T08:04:58.386Z,99.99
2016-11-24T08:06:12.002Z,99.99
2016-11-24T08:07:24.034Z,99.99
2016-11-24T08:09:01.698Z,99.99
2016-11-24T08:10:45.263Z,99.99
2016-11-24T08:11:58.302Z,99.99
2016-11-24T08:13:10.315Z,99.99
2016-11-24T08:14:23.857Z,99.99
2016-11-24T08:15:36.414Z,99.99
2016-11-24T08:16:49.514Z,99.99
2016-11-24T08:18:02.537Z,99.99
2016-11-24T08:19:15.563Z,99.99
2016-11-24T08:20:28.632Z,99.99
2016-11-24T08:21:42.267Z,99.99
2016-11-24T08:22:55.319Z,99.99
2016-11-24T08:25:52.536Z,99.99
2016-11-24T08:27:05.033Z,99.99
2016-11-24T08:28:17.552Z,99.99
2016-11-24T08:29:30.676Z,99.99
2016-11-24T08:30:42.198Z,99.99
2016-11-24T08:31:55.287Z,99.99
2016-11-24T08:33:08.273Z,99.99
2016-11-24T08:34:21.312Z,99.99
2016-11-24T08:35:34.386Z,99.99
2016-11-24T08:36:46.413Z,99.99
2016-11-24T08:37:58.920Z,99.99
2016-11-24T08:39:11.955Z,99.99
2016-11-24T08:40:25.577Z,99.99
2016-11-24T08:42:09.182Z,99.99
2016-11-24T08:43:21.664Z,99.99
2016-11-24T08:44:34.700Z,99.99
2016-11-24T08:45:46.608Z,99.99
2016-11-24T08:46:59.114Z,99.99
2016-11-24T08:48:11.548Z,99.99
2016-11-24T08:49:23.563Z,99.99
2016-11-24T08:50:36.082Z,99.99
2016-11-24T08:51:49.698Z,99.99
2016-11-24T08:53:03.242Z,99.99
2016-11-24T08:54:15.789Z,99.99
2016-11-24T08:55:28.857Z,99.99
2016-11-24T08:58:26.653Z,99.99
2016-11-24T08:59:39.164Z,99.99
2016-11-24T09:00:52.704Z,99.99
2016-11-24T09:02:05.723Z,99.99
2016-11-24T09:03:18.790Z,99.99
2016-11-24T09:04:31.779Z,99.99
2016-11-24T09:05:44.309Z,99.99
2016-11-24T09:06:56.263Z,99.99
2016-11-24T09:08:09.287Z,99.99
2016-11-24T09:09:21.259Z,99.99
2016-11-24T09:10:32.710Z,99.99
2016-11-24T09:11:45.734Z,99.99
2016-11-24T09:12:58.311Z,99.99
2016-11-24T09:14:10.822Z,99.99
2016-11-24T09:15:23.349Z,99.99
2016-11-24T09:16:35.882Z,99.99
2016-11-24T09:17:48.417Z,99.99
2016-11-24T09:19:00.964Z,99.99
2016-11-24T09:20:14.020Z,99.99
2016-11-24T09:21:26.586Z,99.99
2016-11-24T09:22:39.125Z,99.99
2016-11-24T09:23:52.222Z,99.99
2016-11-24T09:25:04.180Z,99.99
2016-11-24T09:26:17.221Z,99.99
2016-11-24T09:27:30.353Z,99.99
2016-11-24T09:28:43.978Z,99.99
2016-11-24T09:29:55.978Z,99.99
2016-11-24T09:31:08.999Z,99.99
2016-11-24T09:32:21.545Z,99.99
2016-11-24T09:33:34.574Z,99.99
2016-11-24T09:34:47.110Z,99.99
2016-11-24T09:35:59.634Z,99.99
2016-11-24T09:37:12.195Z,99.99
2016-11-24T09:38:25.706Z,99.99
2016-11-24T09:39:37.694Z,99.99
2016-11-24T09:40:51.330Z,99.99
2016-11-24T09:42:03.851Z,99.99
2016-11-24T09:43:15.850Z,99.99
2016-11-24T09:44:28.937Z,99.99
2016-11-24T09:45:42.010Z,99.99
2016-11-24T09:46:55.104Z,99.99
2016-11-24T09:48:08.175Z,99.99
2016-11-24T09:49:20.689Z,99.99
2016-11-24T09:50:33.211Z,99.99
2016-11-24T09:51:46.190Z,99.99
2016-11-24T09:53:30.345Z,99.99
2016-11-24T09:54:42.870Z,99.99
2016-11-24T09:55:55.894Z,99.99
2016-11-24T09:57:08.924Z,99.99
2016-11-24T09:58:21.459Z,99.99
2016-11-24T09:59:35.020Z,99.99
2016-11-24T10:00:48.050Z,99.5
2016-11-24T10:02:01.088Z,99.07
2016-11-24T10:03:14.097Z,98.49
2016-11-24T10:04:27.134Z,97.81
2016-11-24T10:05:40.236Z,97.81
2016-11-24T10:06:52.781Z,97.28
2016-11-24T10:08:05.382Z,97.28
2016-11-24T10:09:17.840Z,97.28
2016-11-24T10:10:30.915Z,95.74
2016-11-24T10:11:43.546Z,96.26
2016-11-24T10:12:57.251Z,95.01
2016-11-24T10:14:09.219Z,94.67
2016-11-24T10:15:22.760Z,95.06
2016-11-24T10:16:35.259Z,93.9
2016-11-24T10:17:48.843Z,93.32
2016-11-24T10:19:01.941Z,93.61
2016-11-24T10:20:15.039Z,93.13
2016-11-24T10:21:28.578Z,92.74
2016-11-24T10:22:41.625Z,92.45
2016-11-24T10:23:55.171Z,93.23
2016-11-24T10:25:07.666Z,92.93
2016-11-24T10:26:20.728Z,93.03
2016-11-24T10:27:34.330Z,92.93
2016-11-24T10:28:46.778Z,92.25
2016-11-24T10:29:59.917Z,92.07
2016-11-24T10:31:11.934Z,91.77
2016-11-24T10:32:24.451Z,92.01
2016-11-24T10:34:08.080Z,90.75
2016-11-24T10:35:21.187Z,90.03
2016-11-24T10:36:34.303Z,88.33
2016-11-24T10:37:47.447Z,86.54
2016-11-24T10:39:00.005Z,85.96
2016-11-24T10:40:11.971Z,85.66
2016-11-24T10:41:25.077Z,84.74
2016-11-24T10:42:37.637Z,84.25
2016-11-24T10:43:50.668Z,84.74
2016-11-24T10:45:03.685Z,83.67
2016-11-24T10:46:16.732Z,84.06
2016-11-24T10:47:29.761Z,84.16
2016-11-24T10:48:43.300Z,83
2016-11-24T10:49:56.875Z,82.65
2016-11-24T10:51:10.000Z,81.1
2016-11-24T10:52:23.100Z,81.48
2016-11-24T10:53:35.654Z,80.46
2016-11-24T10:54:49.222Z,78.56
2016-11-24T10:56:01.753Z,77.88
2016-11-24T10:57:15.315Z,77.84
2016-11-24T10:58:27.340Z,78.52
2016-11-24T10:59:40.978Z,79.64
2016-11-24T11:00:53.513Z,80.52
2016-11-24T11:02:06.557Z,80.13
2016-11-24T11:03:19.599Z,79.35
2016-11-24T11:04:32.122Z,78.29
2016-11-24T11:05:44.655Z,79.45
2016-11-24T11:06:57.724Z,78.77
2016-11-24T11:08:10.777Z,79.74
2016-11-24T11:09:23.333Z,78.71
2016-11-24T11:10:36.908Z,78.13
2016-11-24T11:11:50.457Z,78.23
2016-11-24T11:13:03.558Z,77.75
2016-11-24T11:14:16.607Z,78.61
2016-11-24T11:15:29.697Z,79.84
2016-11-24T11:16:42.781Z,77.9
2016-11-24T11:17:54.797Z,78.38
2016-11-24T11:19:08.410Z,78.87
2016-11-24T11:20:21.552Z,78.42
2016-11-24T11:21:34.577Z,78.19
2016-11-24T11:22:46.551Z,78.38
2016-11-24T11:23:59.640Z,78.38
2016-11-24T11:25:12.202Z,76.58
2016-11-24T11:26:25.244Z,77.45
2016-11-24T11:28:09.401Z,77.75
2016-11-24T11:29:23.022Z,77.65
2016-11-24T11:30:35.585Z,78.33
2016-11-24T11:31:48.105Z,77.06
2016-11-24T11:33:01.194Z,77.2
2016-11-24T11:34:14.761Z,76.52
2016-11-24T11:35:28.400Z,75.68
2016-11-24T11:36:42.051Z,75.04
2016-11-24T11:37:53.525Z,74.5
2016-11-24T11:39:05.001Z,75.27
2016-11-24T11:40:17.505Z,73.82
2016-11-24T11:41:31.141Z,73.43
2016-11-24T11:42:44.139Z,73.91
2016-11-24T11:43:56.714Z,72.75
2016-11-24T11:45:08.722Z,73.91
2016-11-24T11:46:52.340Z,74.21
2016-11-24T11:48:04.831Z,73.68
2016-11-24T11:49:17.933Z,73.39
2016-11-24T11:50:30.416Z,73.68
2016-11-24T11:51:42.372Z,73
2016-11-24T11:52:55.470Z,73.2
2016-11-24T11:54:07.973Z,73.2
2016-11-24T11:55:21.130Z,73.49
2016-11-24T11:56:34.777Z,71.97
2016-11-24T11:57:47.322Z,72.45
2016-11-24T11:59:00.406Z,72.07
2016-11-24T12:00:12.919Z,72.65
2016-11-24T12:01:25.463Z,73.62
2016-11-24T12:02:37.477Z,73.97
2016-11-24T12:03:50.043Z,75.01
2016-11-24T12:05:01.500Z,75.01
2016-11-24T12:06:14.611Z,74.37
2016-11-24T12:07:27.687Z,74.56
2016-11-24T12:08:40.958Z,74.17
2016-11-24T12:09:52.990Z,73.84
2016-11-24T12:11:05.522Z,74.33
2016-11-24T12:12:17.768Z,74.43
2016-11-24T12:13:31.400Z,73.1
2016-11-24T12:14:43.403Z,73.88
2016-11-24T12:15:56.497Z,73.68
2016-11-24T12:17:08.457Z,73.97
2016-11-24T12:18:20.455Z,73.1
2016-11-24T12:19:33.013Z,73.24
2016-11-24T12:20:45.579Z,73.33
2016-11-24T12:21:58.180Z,72.52
2016-11-24T12:23:11.256Z,72.75
2016-11-24T12:24:23.817Z,72.3
2016-11-24T12:25:36.890Z,72.42
2016-11-24T12:26:49.408Z,72.91
2016-11-24T12:28:02.456Z,73.2
2016-11-24T12:29:14.456Z,73
2016-11-24T12:30:28.030Z,73.39
2016-11-24T12:31:41.133Z,74.23
2016-11-24T12:32:54.206Z,74.97
2016-11-24T12:34:06.787Z,73.9
2016-11-24T12:35:19.402Z,73.55
2016-11-24T12:36:32.486Z,72.77
2016-11-24T12:37:46.067Z,72.42
2016-11-24T12:38:59.193Z,71.48
2016-11-24T12:40:11.191Z,71.1
2016-11-24T12:41:24.173Z,71.2
2016-11-24T12:42:37.202Z,71.88
2016-11-24T12:43:50.266Z,71.52
2016-11-24T12:45:02.338Z,72.55
2016-11-24T12:46:14.308Z,72.71
2016-11-24T12:47:27.383Z,72.71
2016-11-24T12:49:12.115Z,70.61
2016-11-24T12:50:25.192Z,69.38
2016-11-24T12:51:38.322Z,69.48
2016-11-24T12:52:50.819Z,69.22
2016-11-24T12:54:03.864Z,69.87
2016-11-24T12:55:16.356Z,73.27
2016-11-24T12:56:29.880Z,74.05
2016-11-24T12:57:43.423Z,74.24
2016-11-24T12:58:56.446Z,75.31
2016-11-24T13:00:08.975Z,74.73
2016-11-24T13:01:53.713Z,74.08
2016-11-24T13:03:06.261Z,74.48
2016-11-24T13:04:18.258Z,74.15
2016-11-24T13:05:30.778Z,74.15
2016-11-24T13:06:42.782Z,75.35
2016-11-24T13:07:54.758Z,76.54
2016-11-24T13:09:07.287Z,77.31
2016-11-24T13:10:20.297Z,77.47
2016-11-24T13:11:32.246Z,77.7
2016-11-24T13:12:45.275Z,77.37
2016-11-24T13:13:57.745Z,77.08
2016-11-24T13:15:10.817Z,77.67
2016-11-24T13:16:24.435Z,77.28
2016-11-24T13:17:37.967Z,77.67
2016-11-24T13:18:49.897Z,77.95
2016-11-24T13:20:02.941Z,78.05
2016-11-24T13:21:15.409Z,78.44
2016-11-24T13:22:28.435Z,78.44
2016-11-24T13:23:40.856Z,78.15
2016-11-24T13:24:54.395Z,77.76
2016-11-24T13:26:06.863Z,77.67
2016-11-24T13:27:19.895Z,76.83
2016-11-24T13:28:31.890Z,74.54
2016-11-24T13:29:44.966Z,73.89
2016-11-24T13:30:58.594Z,74.32
2016-11-24T13:32:11.611Z,73.89
2016-11-24T13:33:24.117Z,73.79
2016-11-24T13:34:36.592Z,74.15
2016-11-24T13:35:48.593Z,75.31
2016-11-24T13:37:01.093Z,75.41
2016-11-24T13:38:14.087Z,75.27
2016-11-24T13:39:26.537Z,76.64
2016-11-24T13:40:39.707Z,75.95
2016-11-24T13:41:53.275Z,75.76
2016-11-24T13:43:06.304Z,74.01
2016-11-24T13:44:18.309Z,72.72
2016-11-24T13:45:31.331Z,72.82
2016-11-24T13:46:43.304Z,73.02
2016-11-24T13:47:56.812Z,72.33
2016-11-24T13:49:09.852Z,72.63
2016-11-24T13:50:23.410Z,71.59
2016-11-24T13:51:37.007Z,70.56
2016-11-24T13:52:50.109Z,71.47
2016-11-24T13:54:03.184Z,71.08
2016-11-24T13:55:16.249Z,70.95
2016-11-24T13:56:29.840Z,71.69
2016-11-24T13:57:42.855Z,72.53
2016-11-24T13:58:55.887Z,71.75
2016-11-24T14:00:08.971Z,71.78
2016-11-24T14:01:21.490Z,72.21
2016-11-24T14:02:33.494Z,71.82
2016-11-24T14:03:47.047Z,72.6
2016-11-24T14:05:00.040Z,73.73
2016-11-24T14:06:12.538Z,73.89
2016-11-24T14:07:25.571Z,73.85
2016-11-24T14:08:38.051Z,73.11
2016-11-24T14:09:50.125Z,74.08
2016-11-24T14:11:02.656Z,74.38
2016-11-24T14:12:15.171Z,73.89
2016-11-24T14:13:28.227Z,73.6
2016-11-24T14:14:40.728Z,73.6
2016-11-24T14:15:53.761Z,73.4
2016-11-24T14:17:07.318Z,72.08
2016-11-24T14:18:19.806Z,72.17
2016-11-24T14:19:32.335Z,72.63
2016-11-24T14:20:44.856Z,73.21
2016-11-24T14:21:58.476Z,72.63
2016-11-24T14:23:11.521Z,72.63
2016-11-24T14:24:25.130Z,73.5
2016-11-24T14:25:38.698Z,73.05
2016-11-24T14:26:51.744Z,72.76
2016-11-24T14:28:04.782Z,72.76
2016-11-24T14:29:16.813Z,72.76
2016-11-24T14:30:29.824Z,73.5
2016-11-24T14:31:42.827Z,74.24
2016-11-24T14:32:55.865Z,75.08
2016-11-24T14:34:08.852Z,74.98
2016-11-24T14:35:22.370Z,74.3
2016-11-24T14:36:35.396Z,74.11
2016-11-24T14:37:48.448Z,74.21
2016-11-24T14:39:01.518Z,73.37
2016-11-24T14:40:13.443Z,72.92
2016-11-24T14:41:26.462Z,73.46
2016-11-24T14:42:39.539Z,74.15
2016-11-24T14:43:51.529Z,73.75
2016-11-24T14:45:04.514Z,73.46
2016-11-24T14:46:17.601Z,73.08
2016-11-24T14:47:31.191Z,73.46
2016-11-24T14:48:43.651Z,74.79
2016-11-24T14:49:57.198Z,74.79
2016-11-24T14:51:10.276Z,75.08
2016-11-24T14:52:22.817Z,75.27
2016-11-24T14:53:35.316Z,73.91
2016-11-24T14:54:47.307Z,75.08
2016-11-24T14:56:00.352Z,75.67
2016-11-24T14:57:12.924Z,74.21
2016-11-24T14:58:24.937Z,75.27
2016-11-24T14:59:38.525Z,74.56
2016-11-24T15:00:51.078Z,73.72
2016-11-24T15:02:04.644Z,73.24
2016-11-24T15:03:17.704Z,73.37
2016-11-24T15:04:30.248Z,73.37
2016-11-24T15:05:42.718Z,73.75
2016-11-24T15:06:56.279Z,72.88
2016-11-24T15:08:08.823Z,72.43
2016-11-24T15:09:21.819Z,71.98
2016-11-24T15:10:33.830Z,72.24
2016-11-24T15:11:47.350Z,72.78
2016-11-24T15:12:59.912Z,72.39
2016-11-24T15:14:12.906Z,72.3
2016-11-24T15:15:25.980Z,71.81
2016-11-24T15:16:39.023Z,72.43
2016-11-24T15:17:52.612Z,72.49
2016-11-24T15:19:05.614Z,72.33
2016-11-24T15:20:18.620Z,72.43
2016-11-24T15:21:32.246Z,71.85
2016-11-24T15:22:44.719Z,72.04
2016-11-24T15:23:58.278Z,72.63
2016-11-24T15:25:10.799Z,72.69
2016-11-24T15:26:23.307Z,73.46
2016-11-24T15:27:36.864Z,74.5
2016-11-24T15:28:49.428Z,74.11
2016-11-24T15:30:02.511Z,74.11
2016-11-24T15:31:15.001Z,73.37
2016-11-24T15:32:28.545Z,73.08
2016-11-24T15:33:41.526Z,73.56
2016-11-24T15:34:54.579Z,73.11
2016-11-24T15:36:07.662Z,74.34
2016-11-24T15:37:20.661Z,74.44
2016-11-24T15:38:33.165Z,74.05
2016-11-24T15:40:17.333Z,75.08
2016-11-24T15:41:30.846Z,74.69
2016-11-24T15:42:43.290Z,74.85
2016-11-24T15:43:55.236Z,75.92
2016-11-24T15:45:08.309Z,75.18
2016-11-24T15:46:20.827Z,75.37
2016-11-24T15:47:33.866Z,74.69
2016-11-24T15:48:46.364Z,74.05
2016-11-24T15:49:58.821Z,73.37
2016-11-24T15:51:11.845Z,73.37
2016-11-24T15:52:24.352Z,74.24
2016-11-24T15:53:37.930Z,74.15
2016-11-24T15:54:50.973Z,73.08
2016-11-24T15:56:04.555Z,73.3
2016-11-24T15:57:17.590Z,73.21
2016-11-24T15:58:30.620Z,73.5
2016-11-24T15:59:44.143Z,73.69
2016-11-24T16:00:57.157Z,75.21
2016-11-24T16:02:10.136Z,75.21
2016-11-24T16:03:22.689Z,75.6
2016-11-24T16:04:36.292Z,76.05
2016-11-24T16:05:48.795Z,75.85
2016-11-24T16:07:00.258Z,76.34
2016-11-24T16:08:12.233Z,76.64